Guenther Schulte — VRGK8 — position and weather

sailwx.info

Track history (hours):
 
Tides and Currents Weather Stations Pressure Air Temp Water Temp Dewpoint Dewpoint Depression Visibility Wind Speed Wind Dir Waves Ship Positions

Guenther Schulte

Last reported at 2014-Sep-13 06:29 UTC. Time now 2014-Sep-23 18:30 UTC.
Position S 36°09' E 175°46'.
Warning: this ship's position is 10 days out of date.

Length 231 m; draft 10 m.

Type: Ship (hazmat cat C). MMSI: 477728800.

Date/timePositionNaut miles runAvg speedWind from/ knotsBaromVisibWave heightAir tempDewpointWater temp
2014-Sep-13 06:29S 36°09' E 175°46'2319.3
2014-Sep-13 05:17S 35°50' E 175°32'  
2014-Sep-08 07:30S 37°12' E 150°15'9 9.3
2014-Sep-08 06:33S 37°21' E 150°11'48 9.5
2014-Sep-08 01:32S 38°01' E 149°39'2210.3
2014-Sep-07 23:27S 38°14' E 149°17'1010.9
2014-Sep-07 22:34S 38°19' E 149°07'1111.2
2014-Sep-07 21:34S 38°26' E 148°56'1111.2
2014-Sep-07 20:34S 38°32' E 148°44'1111.1
2014-Sep-07 19:33S 38°38' E 148°32'1111.5
2014-Sep-07 18:34S 38°45' E 148°20'1111.2
2014-Sep-07 17:34S 38°50' E 148°07'1211.6
2014-Sep-07 16:33S 38°53' E 147°53'1212.1
2014-Sep-07 15:34S 38°57' E 147°38'1212.3
2014-Sep-07 14:34S 39°02' E 147°23'1212.3
2014-Sep-07 13:34S 39°06' E 147°08'1211.7
2014-Sep-07 12:34S 39°10' E 146°54'1111.4
2014-Sep-07 11:33S 39°14' E 146°40'1111.1
2014-Sep-07 10:33S 39°16' E 146°26'1111.2
2014-Sep-07 09:34S 39°16' E 146°12'1111.1
2014-Sep-07 08:34S 39°12' E 145°59'1211.7
2014-Sep-07 07:34S 39°05' E 145°46'1211.9
2014-Sep-07 06:34S 38°58' E 145°34'1211.9
2014-Sep-07 05:34S 38°52' E 145°21'4 0.1
2014-Sep-05 13:31S 38°50' E 145°26'1718.0
2014-Sep-05 12:33S 38°59' E 145°45'1818.2
2014-Sep-05 11:33S 39°07' E 146°06'1717.0
2014-Sep-05 10:33S 39°10' E 146°28'1817.6
2014-Sep-05 09:33S 39°04' E 146°49'1717.4
2014-Sep-05 08:33S 38°59' E 147°10'2417.7
2014-Sep-05 07:14S 38°51' E 147°39'1217.7
2014-Sep-05 06:33S 38°47' E 147°53'  
Track history (hours):
 
Tides and Currents Weather Stations Pressure Air Temp Water Temp Dewpoint Dewpoint Depression Visibility Wind Speed Wind Dir Waves Ship Positions

Guenther Schulte

Last reported at 2014-Sep-13 06:29 UTC. Time now 2014-Sep-23 18:30 UTC.
Position S 36°09' E 175°46'.
Warning: this ship's position is 10 days out of date.

Length 231 m; draft 10 m.

Type: Ship (hazmat cat C). MMSI: 477728800.

Date/timePositionNaut miles runAvg speedWind from/ knotsBaromVisibWave heightAir tempDewpointWater temp
2014-Sep-13 06:29S 36°09' E 175°46'2319.3
2014-Sep-13 05:17S 35°50' E 175°32'  
2014-Sep-08 07:30S 37°12' E 150°15'9 9.3
2014-Sep-08 06:33S 37°21' E 150°11'48 9.5
2014-Sep-08 01:32S 38°01' E 149°39'2210.3
2014-Sep-07 23:27S 38°14' E 149°17'1010.9
2014-Sep-07 22:34S 38°19' E 149°07'1111.2
2014-Sep-07 21:34S 38°26' E 148°56'1111.2
2014-Sep-07 20:34S 38°32' E 148°44'1111.1
2014-Sep-07 19:33S 38°38' E 148°32'1111.5
2014-Sep-07 18:34S 38°45' E 148°20'1111.2
2014-Sep-07 17:34S 38°50' E 148°07'1211.6
2014-Sep-07 16:33S 38°53' E 147°53'1212.1
2014-Sep-07 15:34S 38°57' E 147°38'1212.3
2014-Sep-07 14:34S 39°02' E 147°23'1212.3
2014-Sep-07 13:34S 39°06' E 147°08'1211.7
2014-Sep-07 12:34S 39°10' E 146°54'1111.4
2014-Sep-07 11:33S 39°14' E 146°40'1111.1
2014-Sep-07 10:33S 39°16' E 146°26'1111.2
2014-Sep-07 09:34S 39°16' E 146°12'1111.1
2014-Sep-07 08:34S 39°12' E 145°59'1211.7
2014-Sep-07 07:34S 39°05' E 145°46'1211.9
2014-Sep-07 06:34S 38°58' E 145°34'1211.9
2014-Sep-07 05:34S 38°52' E 145°21'4 0.1
2014-Sep-05 13:31S 38°50' E 145°26'1718.0
2014-Sep-05 12:33S 38°59' E 145°45'1818.2
2014-Sep-05 11:33S 39°07' E 146°06'1717.0
2014-Sep-05 10:33S 39°10' E 146°28'1817.6
2014-Sep-05 09:33S 39°04' E 146°49'1717.4
2014-Sep-05 08:33S 38°59' E 147°10'2417.7
2014-Sep-05 07:14S 38°51' E 147°39'1217.7
2014-Sep-05 06:33S 38°47' E 147°53'  

Dump ship's entire track history